Time;durP1;ratioP1;P1;durP2;ratioP2;P2;SDS_P1;SDS_P2;PMS_P1;PMS_P2;Temp;Humidity;BMP_temperature;BMP_pressure;BME280_temperature;BME280_humidity;BME280_pressure;Samples;Min_cycle;Max_cycle;Signal;HPM_P1;HPM_P2
2023/10/06 00:01:37;;;;;;;9.63;2.45;;;14.00;99.90;;;;;;4979397;28;20066;-72
2023/10/06 00:04:06;;;;;;;9.35;2.80;;;13.90;99.90;;;;;;4998917;28;20042;-70
2023/10/06 00:06:40;;;;;;;7.43;1.98;;;13.90;99.90;;;;;;4994160;28;20041;-71
2023/10/06 00:09:06;;;;;;;6.43;2.33;;;13.90;99.90;;;;;;4998624;28;20129;-71
2023/10/06 00:11:32;;;;;;;9.13;2.22;;;13.80;99.90;;;;;;4997609;28;20069;-70
2023/10/06 00:14:00;;;;;;;6.38;2.10;;;13.80;99.90;;;;;;4978962;28;20061;-71
2023/10/06 00:16:34;;;;;;;6.32;2.03;;;13.80;99.90;;;;;;4984572;28;20037;-71
2023/10/06 00:19:13;;;;;;;10.55;2.75;;;13.80;99.90;;;;;;4974224;28;20324;-72
2023/10/06 00:21:44;;;;;;;5.90;2.20;;;13.70;99.90;;;;;;4982194;28;20035;-72
2023/10/06 00:24:10;;;;;;;15.90;2.45;;;13.70;99.90;;;;;;4982492;28;20046;-71
2023/10/06 00:26:37;;;;;;;9.30;2.63;;;13.70;99.90;;;;;;4978616;28;20034;-71
2023/10/06 00:29:09;;;;;;;8.18;2.20;;;13.70;99.90;;;;;;4998497;28;20144;-72
2023/10/06 00:31:35;;;;;;;11.07;2.55;;;13.70;99.90;;;;;;4998416;28;20029;-72
2023/10/06 00:34:01;;;;;;;7.25;2.60;;;13.70;99.90;;;;;;4984735;28;20041;-70
2023/10/06 00:36:29;;;;;;;10.20;2.30;;;13.60;99.90;;;;;;4983584;28;20127;-71
2023/10/06 00:38:55;;;;;;;7.30;2.63;;;13.60;99.90;;;;;;4977887;28;20038;-71
2023/10/06 00:41:21;;;;;;;5.47;2.17;;;13.60;99.90;;;;;;4996631;28;20399;-71
2023/10/06 00:43:48;;;;;;;9.68;2.78;;;13.50;99.90;;;;;;4981518;28;20041;-70
2023/10/06 00:46:16;;;;;;;7.13;2.08;;;13.50;99.90;;;;;;4989760;28;20490;-72
2023/10/06 00:48:44;;;;;;;10.07;2.20;;;13.50;99.90;;;;;;5003234;28;20057;-73
2023/10/06 00:51:19;;;;;;;5.13;2.05;;;13.50;99.90;;;;;;4993497;28;20041;-71
2023/10/06 00:53:46;;;;;;;8.25;2.60;;;13.50;99.90;;;;;;5000135;28;20038;-71
2023/10/06 00:56:15;;;;;;;8.88;2.35;;;13.50;99.90;;;;;;4995889;28;20065;-71
2023/10/06 00:58:41;;;;;;;9.88;2.90;;;13.50;99.90;;;;;;4985430;28;20040;-71
2023/10/06 01:01:17;;;;;;;9.65;2.25;;;13.40;99.90;;;;;;4977660;28;20065;-70
2023/10/06 01:03:44;;;;;;;10.13;2.50;;;13.40;99.90;;;;;;4996105;28;20521;-72
2023/10/06 01:06:13;;;;;;;6.88;2.60;;;13.50;99.90;;;;;;4984688;28;20041;-71
2023/10/06 01:08:52;;;;;;;12.43;2.90;;;13.50;99.90;;;;;;4999798;28;20046;-70
2023/10/06 01:11:26;;;;;;;7.85;2.20;;;13.40;99.90;;;;;;4982506;28;20049;-72
2023/10/06 01:13:59;;;;;;;7.20;2.60;;;13.50;99.90;;;;;;4995809;28;20599;-70
2023/10/06 01:16:30;;;;;;;5.22;2.33;;;13.50;99.90;;;;;;4981403;28;20045;-71
2023/10/06 01:19:06;;;;;;;8.02;2.50;;;13.50;99.90;;;;;;4997804;28;20057;-72
2023/10/06 01:21:32;;;;;;;7.93;1.98;;;13.50;99.90;;;;;;4997042;28;20031;-71
2023/10/06 01:24:00;;;;;;;7.20;2.33;;;13.40;99.90;;;;;;4998275;28;20113;-72
2023/10/06 01:26:25;;;;;;;6.85;2.35;;;13.40;99.90;;;;;;4981717;28;20040;-70
2023/10/06 01:28:51;;;;;;;9.93;2.90;;;13.40;99.90;;;;;;4994591;28;20132;-71
2023/10/06 01:31:19;;;;;;;8.27;2.05;;;13.40;99.90;;;;;;4981712;28;20070;-71
2023/10/06 01:33:45;;;;;;;5.53;2.13;;;13.40;99.90;;;;;;4995038;28;20068;-73
2023/10/06 01:36:13;;;;;;;9.77;1.90;;;13.30;99.90;;;;;;4994790;28;20495;-70
2023/10/06 01:38:43;;;;;;;5.78;2.05;;;13.40;99.90;;;;;;4979942;28;20461;-72
2023/10/06 01:41:11;;;;;;;8.70;2.60;;;13.40;99.90;;;;;;4979679;28;20038;-71
2023/10/06 01:43:38;;;;;;;11.60;2.20;;;13.40;99.90;;;;;;4982985;28;20025;-71
2023/10/06 01:46:07;;;;;;;8.73;2.10;;;13.40;99.90;;;;;;5007673;28;20108;-70
2023/10/06 01:48:33;;;;;;;5.78;1.90;;;13.40;99.90;;;;;;4979768;28;20081;-70
2023/10/06 01:50:59;;;;;;;6.38;2.05;;;13.40;99.90;;;;;;4978955;28;20042;-71
2023/10/06 01:53:25;;;;;;;7.03;2.53;;;13.30;99.90;;;;;;4982960;28;20459;-70
2023/10/06 01:55:56;;;;;;;4.35;2.00;;;13.30;99.90;;;;;;4976852;28;20042;-71
2023/10/06 01:58:22;;;;;;;8.55;2.60;;;13.30;99.90;;;;;;4981007;28;20034;-71
2023/10/06 02:00:48;;;;;;;8.10;2.58;;;13.30;99.90;;;;;;4998741;28;20112;-70
2023/10/06 02:03:17;;;;;;;6.43;2.33;;;13.30;99.90;;;;;;4991019;28;20038;-73
2023/10/06 02:05:43;;;;;;;6.97;1.93;;;13.30;99.90;;;;;;4981931;28;20042;-71
2023/10/06 02:08:09;;;;;;;5.85;1.92;;;13.30;99.90;;;;;;4999782;28;20051;-71
2023/10/06 02:10:38;;;;;;;5.55;1.80;;;13.30;99.90;;;;;;4977327;28;20034;-71
2023/10/06 02:13:07;;;;;;;6.85;1.85;;;13.20;99.90;;;;;;4999998;28;20041;-70
2023/10/06 02:15:33;;;;;;;7.80;1.95;;;13.30;99.90;;;;;;4982514;28;20034;-71
2023/10/06 02:17:58;;;;;;;7.78;2.13;;;13.20;99.90;;;;;;4980896;28;20034;-70
2023/10/06 02:22:55;;;;;;;7.07;2.45;;;13.20;99.90;;;;;;4990031;28;20038;-71
2023/10/06 02:25:20;;;;;;;6.88;2.20;;;13.20;99.90;;;;;;4980428;28;20084;-71
2023/10/06 02:27:50;;;;;;;4.45;1.80;;;13.20;99.90;;;;;;4977090;28;20034;-71
2023/10/06 02:30:19;;;;;;;5.97;1.95;;;13.20;99.90;;;;;;4990742;28;20088;-71
2023/10/06 02:32:45;;;;;;;9.30;2.22;;;13.20;99.90;;;;;;4980785;28;20046;-72
2023/10/06 02:35:12;;;;;;;9.23;2.20;;;13.10;99.90;;;;;;4976545;28;20771;-70
2023/10/06 02:37:45;;;;;;;5.63;2.10;;;13.10;99.90;;;;;;4977691;28;20039;-74
2023/10/06 02:40:11;;;;;;;10.27;2.15;;;13.10;99.90;;;;;;5002054;28;20490;-71
2023/10/06 02:42:47;;;;;;;6.60;2.05;;;13.00;99.90;;;;;;4998329;28;20030;-71
2023/10/06 02:45:20;;;;;;;8.93;2.65;;;13.00;99.90;;;;;;4983392;28;20332;-71
2023/10/06 02:47:46;;;;;;;10.85;2.67;;;13.00;99.90;;;;;;4980534;28;20464;-72
2023/10/06 02:50:19;;;;;;;9.75;2.45;;;13.00;99.90;;;;;;4994023;28;20038;-70
2023/10/06 02:52:46;;;;;;;7.28;1.77;;;13.00;99.90;;;;;;4976437;28;20041;-70
2023/10/06 02:55:13;;;;;;;6.03;1.92;;;13.00;99.90;;;;;;4997960;28;20030;-69
2023/10/06 02:57:41;;;;;;;7.53;2.28;;;12.90;99.90;;;;;;4994445;28;20031;-71
2023/10/06 03:00:32;;;;;;;5.40;1.80;;;13.00;99.90;;;;;;4976859;28;20038;-70
2023/10/06 03:03:11;;;;;;;6.47;2.22;;;13.00;99.90;;;;;;4973932;28;20035;-70
2023/10/06 03:05:39;;;;;;;5.25;2.40;;;13.00;99.90;;;;;;4981181;28;20034;-70
2023/10/06 03:08:08;;;;;;;9.25;2.75;;;13.00;99.90;;;;;;4995437;28;20153;-70
2023/10/06 03:10:44;;;;;;;8.45;2.50;;;12.90;99.90;;;;;;4997142;28;20054;-72
2023/10/06 03:13:13;;;;;;;5.07;2.40;;;12.90;99.90;;;;;;5001561;28;20045;-71
2023/10/06 03:15:45;;;;;;;10.77;3.15;;;12.90;99.90;;;;;;4984896;28;20033;-72
2023/10/06 03:18:15;;;;;;;6.68;2.35;;;12.90;99.90;;;;;;4994163;28;20074;-70
2023/10/06 03:20:53;;;;;;;7.88;2.50;;;12.90;99.90;;;;;;4993756;28;20510;-71
2023/10/06 03:23:32;;;;;;;11.57;2.75;;;12.90;99.90;;;;;;4976595;28;20042;-70
2023/10/06 03:25:57;;;;;;;9.55;2.15;;;12.90;99.90;;;;;;4996130;28;24272;-72
2023/10/06 03:28:31;;;;;;;13.55;2.60;;;12.90;99.90;;;;;;5001032;28;20490;-70
2023/10/06 03:31:02;;;;;;;7.07;2.80;;;12.90;99.90;;;;;;4981054;28;20041;-70
2023/10/06 03:33:28;;;;;;;8.10;2.67;;;12.90;99.90;;;;;;4984062;28;20038;-70
2023/10/06 03:35:54;;;;;;;18.52;3.55;;;12.90;99.90;;;;;;5000915;28;20991;-70
2023/10/06 03:43:33;;;;;;;7.35;2.83;;;12.90;99.90;;;;;;4997004;28;20045;-72
2023/10/06 03:46:00;;;;;;;7.57;2.50;;;13.00;99.90;;;;;;4979362;28;20030;-70
2023/10/06 03:48:29;;;;;;;10.02;2.63;;;13.00;99.90;;;;;;4984920;28;20030;-71
2023/10/06 03:50:55;;;;;;;7.03;2.83;;;13.00;99.90;;;;;;4982515;28;20068;-72
2023/10/06 03:53:23;;;;;;;12.32;3.35;;;12.90;99.90;;;;;;5006540;28;20172;-71
2023/10/06 03:55:48;;;;;;;10.02;3.55;;;12.90;99.90;;;;;;4985950;28;20046;-70
2023/10/06 03:58:16;;;;;;;7.03;2.60;;;12.90;99.90;;;;;;4998298;28;20096;-71
2023/10/06 04:00:48;;;;;;;9.45;2.30;;;12.90;99.90;;;;;;4979010;28;20089;-71
2023/10/06 04:03:18;;;;;;;6.82;2.85;;;12.90;99.90;;;;;;4997348;28;20038;-72
2023/10/06 04:05:44;;;;;;;9.53;3.07;;;12.90;99.90;;;;;;4985045;28;20045;-72
2023/10/06 04:08:17;;;;;;;5.57;2.55;;;13.00;99.90;;;;;;5002503;28;20299;-72
2023/10/06 04:10:53;;;;;;;8.23;2.88;;;13.00;99.90;;;;;;4981484;28;20552;-71
2023/10/06 04:13:20;;;;;;;8.48;2.55;;;13.00;99.90;;;;;;4980703;28;20077;-71
2023/10/06 04:15:49;;;;;;;6.65;3.00;;;13.00;99.90;;;;;;4979072;28;20042;-70
2023/10/06 04:18:21;;;;;;;12.90;3.58;;;13.00;99.90;;;;;;5006053;28;20037;-71
2023/10/06 04:20:46;;;;;;;9.65;2.67;;;13.00;99.90;;;;;;4982812;28;20033;-71
2023/10/06 04:23:13;;;;;;;8.90;3.45;;;13.00;99.90;;;;;;4978848;28;20588;-72
2023/10/06 04:25:40;;;;;;;7.28;2.83;;;12.90;99.90;;;;;;4996530;28;20125;-71
2023/10/06 04:28:11;;;;;;;10.00;2.63;;;12.90;99.90;;;;;;5000263;28;20086;-71
2023/10/06 04:30:42;;;;;;;9.13;2.85;;;13.00;99.90;;;;;;4979218;28;20053;-71
2023/10/06 04:33:10;;;;;;;8.82;2.53;;;13.00;99.90;;;;;;4978659;28;20054;-71
2023/10/06 04:35:40;;;;;;;11.18;2.88;;;13.00;99.90;;;;;;5000601;28;20087;-71
2023/10/06 04:38:12;;;;;;;6.28;2.40;;;13.00;99.90;;;;;;4977946;28;20121;-71
2023/10/06 04:40:38;;;;;;;7.32;2.85;;;13.00;99.90;;;;;;4983614;28;20030;-72
2023/10/06 04:43:04;;;;;;;6.75;2.30;;;13.00;99.90;;;;;;4999320;28;20398;-71
2023/10/06 04:45:32;;;;;;;11.65;3.60;;;13.00;99.90;;;;;;5009120;28;20038;-71
2023/10/06 04:48:00;;;;;;;9.68;2.78;;;13.00;99.90;;;;;;4997485;28;20084;-70
2023/10/06 04:50:29;;;;;;;11.68;2.50;;;13.00;99.90;;;;;;4981394;28;20045;-70
2023/10/06 04:52:58;;;;;;;7.88;2.35;;;13.00;99.90;;;;;;4979352;28;20332;-70
2023/10/06 04:55:24;;;;;;;13.73;2.38;;;13.00;99.90;;;;;;4981141;28;20031;-72
2023/10/06 04:57:49;;;;;;;5.47;2.25;;;13.00;99.90;;;;;;5000011;28;20038;-71
2023/10/06 05:00:19;;;;;;;9.43;2.10;;;13.00;99.90;;;;;;4998751;28;20026;-70
2023/10/06 05:02:50;;;;;;;4.40;2.17;;;13.00;99.90;;;;;;4996037;28;20049;-71
2023/10/06 05:05:20;;;;;;;10.80;3.08;;;13.00;99.90;;;;;;4982633;28;20566;-71
2023/10/06 05:07:50;;;;;;;7.82;1.83;;;13.00;99.90;;;;;;5000844;28;20692;-70
2023/10/06 05:10:21;;;;;;;7.68;2.05;;;13.00;99.90;;;;;;4980647;28;20041;-71
2023/10/06 05:12:47;;;;;;;12.02;3.13;;;13.00;99.90;;;;;;4995423;28;20042;-70
2023/10/06 05:15:23;;;;;;;9.65;2.15;;;13.00;99.90;;;;;;4996226;28;20030;-70
2023/10/06 05:17:55;;;;;;;6.88;2.63;;;13.10;99.90;;;;;;4985379;28;20367;-71
2023/10/06 05:20:29;;;;;;;7.30;1.92;;;13.00;99.90;;;;;;4995185;28;20030;-71
2023/10/06 05:23:09;;;;;;;9.93;2.40;;;13.10;99.90;;;;;;4996540;28;20046;-72
2023/10/06 05:25:36;;;;;;;11.02;3.20;;;13.00;99.90;;;;;;4978732;28;20035;-70
2023/10/06 05:28:02;;;;;;;4.15;1.75;;;13.10;99.90;;;;;;4981269;28;20053;-72
2023/10/06 05:30:28;;;;;;;8.57;2.38;;;13.00;99.90;;;;;;4978005;28;20038;-72
2023/10/06 05:32:58;;;;;;;9.23;2.00;;;13.10;99.90;;;;;;4979903;28;20042;-71
2023/10/06 05:35:36;;;;;;;10.10;2.00;;;13.10;99.90;;;;;;4983177;28;20030;-71
2023/10/06 05:38:12;;;;;;;4.57;2.85;;;13.10;99.90;;;;;;4976826;28;20026;-72
2023/10/06 05:40:42;;;;;;;10.43;2.55;;;13.10;99.90;;;;;;4978037;28;20027;-70
2023/10/06 05:43:11;;;;;;;8.70;2.53;;;13.10;99.90;;;;;;4982531;28;20125;-71
2023/10/06 05:45:41;;;;;;;9.20;2.43;;;13.10;99.90;;;;;;4979305;28;20032;-71
2023/10/06 05:48:11;;;;;;;11.43;2.58;;;13.20;99.90;;;;;;4998450;28;20030;-70
2023/10/06 05:50:38;;;;;;;7.30;2.70;;;13.20;99.90;;;;;;4978001;28;20034;-70
2023/10/06 05:53:05;;;;;;;9.40;2.92;;;13.20;99.90;;;;;;4994484;28;20041;-72
2023/10/06 05:55:35;;;;;;;6.65;2.30;;;13.20;99.90;;;;;;4995654;28;20045;-71
2023/10/06 05:58:01;;;;;;;15.77;3.38;;;13.30;99.90;;;;;;4977421;28;20034;-71
2023/10/06 06:00:30;;;;;;;16.55;3.53;;;13.30;99.90;;;;;;4980621;28;20032;-71
2023/10/06 06:03:18;;;;;;;11.60;2.50;;;13.30;99.90;;;;;;4980530;28;20038;-71
2023/10/06 06:05:44;;;;;;;15.55;2.75;;;13.30;99.90;;;;;;4997915;28;20038;-73
2023/10/06 06:08:09;;;;;;;9.43;2.20;;;13.30;99.90;;;;;;4996527;28;20409;-71
2023/10/06 06:10:36;;;;;;;7.50;3.00;;;13.30;99.90;;;;;;4975604;28;20093;-71
2023/10/06 06:13:02;;;;;;;6.75;2.50;;;13.30;99.90;;;;;;4996759;28;20045;-73
2023/10/06 06:15:28;;;;;;;10.43;2.50;;;13.30;99.90;;;;;;4983109;28;20030;-70
2023/10/06 06:17:54;;;;;;;8.02;3.20;;;13.30;99.90;;;;;;4983622;28;20042;-71
2023/10/06 06:20:21;;;;;;;8.98;2.60;;;13.30;99.90;;;;;;5001729;28;20046;-70
2023/10/06 06:22:53;;;;;;;10.55;3.05;;;13.30;99.90;;;;;;5002091;28;20133;-70
2023/10/06 06:25:21;;;;;;;7.95;2.97;;;13.30;99.90;;;;;;4986886;28;20034;-70
2023/10/06 06:27:47;;;;;;;9.60;2.55;;;13.30;99.90;;;;;;4986877;28;20123;-71
2023/10/06 06:30:12;;;;;;;8.02;2.60;;;13.30;99.90;;;;;;5003677;28;20121;-71
2023/10/06 06:32:42;;;;;;;9.07;2.72;;;13.40;99.90;;;;;;4986529;28;20038;-71
2023/10/06 06:35:13;;;;;;;13.68;4.00;;;13.40;99.90;;;;;;5003156;28;20077;-70
2023/10/06 06:37:41;;;;;;;13.75;2.63;;;13.40;99.90;;;;;;5005598;28;20033;-71
2023/10/06 06:40:10;;;;;;;7.25;2.30;;;13.40;99.90;;;;;;4985848;28;20037;-71
2023/10/06 06:42:36;;;;;;;9.75;2.05;;;13.40;99.90;;;;;;4983081;28;20568;-70
2023/10/06 06:45:01;;;;;;;7.40;2.42;;;13.40;99.90;;;;;;4985564;28;20030;-71
2023/10/06 06:47:27;;;;;;;6.38;2.50;;;13.40;99.90;;;;;;5003689;28;20100;-71
2023/10/06 06:49:53;;;;;;;10.35;2.90;;;13.40;99.90;;;;;;5003129;28;20033;-70
2023/10/06 06:52:21;;;;;;;8.00;3.70;;;13.40;99.90;;;;;;4984657;28;20034;-70
2023/10/06 06:54:48;;;;;;;9.77;2.60;;;13.50;99.90;;;;;;5003185;28;20087;-72
2023/10/06 06:57:16;;;;;;;9.73;3.03;;;13.50;99.90;;;;;;5004141;28;20064;-71
2023/10/06 06:59:43;;;;;;;7.75;2.70;;;13.50;99.90;;;;;;4978058;28;20398;-71
2023/10/06 07:02:09;;;;;;;15.25;3.35;;;13.40;99.90;;;;;;4978301;28;20030;-72
2023/10/06 07:04:35;;;;;;;8.40;1.95;;;13.50;99.90;;;;;;4980593;28;20034;-71
2023/10/06 07:07:01;;;;;;;13.80;2.92;;;13.50;99.90;;;;;;4984082;28;20034;-71
2023/10/06 07:09:27;;;;;;;6.80;2.25;;;13.50;99.90;;;;;;4998298;28;20033;-71
2023/10/06 07:11:54;;;;;;;10.48;2.60;;;13.60;99.90;;;;;;4996996;28;20046;-71
2023/10/06 07:14:20;;;;;;;8.05;2.80;;;13.60;99.90;;;;;;4980514;28;20042;-71
2023/10/06 07:16:47;;;;;;;7.40;2.70;;;13.70;99.90;;;;;;4986791;28;20053;-70
2023/10/06 07:19:15;;;;;;;9.45;2.10;;;13.80;99.90;;;;;;4981331;28;20470;-71
2023/10/06 07:21:41;;;;;;;7.88;2.72;;;13.80;99.90;;;;;;4995878;28;20034;-71
2023/10/06 07:24:10;;;;;;;9.73;2.65;;;13.90;99.90;;;;;;4999195;28;20045;-70
2023/10/06 07:26:36;;;;;;;7.63;2.40;;;14.00;99.90;;;;;;4998207;28;20041;-71
2023/10/06 07:29:05;;;;;;;9.10;2.60;;;14.00;99.90;;;;;;4982325;28;20057;-71
2023/10/06 07:31:31;;;;;;;10.65;3.38;;;14.20;99.90;;;;;;4999818;28;20486;-70
2023/10/06 07:34:03;;;;;;;5.63;2.13;;;14.20;99.90;;;;;;4978439;28;20061;-72
2023/10/06 07:36:28;;;;;;;8.23;2.80;;;14.20;99.90;;;;;;4979105;28;20561;-71
2023/10/06 07:38:54;;;;;;;8.07;3.65;;;14.30;99.90;;;;;;4979205;28;20142;-71
2023/10/06 07:41:24;;;;;;;10.98;2.90;;;14.40;99.90;;;;;;4981555;28;20037;-73
2023/10/06 07:43:50;;;;;;;6.80;1.95;;;14.50;99.90;;;;;;4996389;28;20037;-71
2023/10/06 07:46:16;;;;;;;11.07;2.45;;;14.50;99.90;;;;;;4989177;28;20133;-72
2023/10/06 07:48:45;;;;;;;6.72;2.10;;;14.70;99.90;;;;;;4998366;28;20137;-72
2023/10/06 07:51:16;;;;;;;11.63;2.80;;;14.80;99.90;;;;;;4986054;28;20041;-72
2023/10/06 07:53:43;;;;;;;5.63;2.10;;;14.80;99.90;;;;;;4983090;28;20050;-71
2023/10/06 07:56:09;;;;;;;10.48;2.15;;;14.90;99.90;;;;;;4981873;28;20040;-71
2023/10/06 07:58:40;;;;;;;9.13;2.65;;;14.90;99.90;;;;;;4995097;28;20151;-70
2023/10/06 08:01:08;;;;;;;10.60;2.03;;;15.00;99.90;;;;;;4999044;28;20065;-71
2023/10/06 08:03:37;;;;;;;5.57;2.10;;;15.10;99.90;;;;;;4985187;28;20402;-71
2023/10/06 08:06:02;;;;;;;7.95;2.13;;;15.20;99.90;;;;;;4983049;28;20042;-72
2023/10/06 08:08:28;;;;;;;12.27;2.78;;;15.30;99.90;;;;;;4982003;28;20096;-71
2023/10/06 08:10:56;;;;;;;5.95;2.13;;;15.50;99.90;;;;;;5000381;28;20041;-70
2023/10/06 08:13:22;;;;;;;5.10;2.22;;;15.60;99.90;;;;;;5000390;28;20096;-71
2023/10/06 08:15:47;;;;;;;6.65;1.80;;;15.70;99.90;;;;;;4984194;28;20055;-72
2023/10/06 08:18:13;;;;;;;6.95;3.22;;;15.70;99.90;;;;;;5003490;28;20044;-71
2023/10/06 08:20:40;;;;;;;6.05;2.00;;;15.80;99.90;;;;;;4981470;28;20030;-71
2023/10/06 08:23:11;;;;;;;7.32;2.17;;;15.80;99.90;;;;;;4998003;28;20038;-71
2023/10/06 08:25:37;;;;;;;6.97;2.63;;;15.90;99.90;;;;;;4986617;28;20406;-76
2023/10/06 08:28:05;;;;;;;4.53;1.73;;;15.90;99.90;;;;;;4982594;28;20049;-72
2023/10/06 08:30:32;;;;;;;10.85;2.00;;;15.90;99.90;;;;;;4995878;28;20042;-69
2023/10/06 08:32:59;;;;;;;5.13;1.42;;;15.90;99.90;;;;;;4998963;28;20034;-71
2023/10/06 08:35:26;;;;;;;10.23;1.80;;;15.90;99.90;;;;;;4982923;28;20516;-70
2023/10/06 08:37:52;;;;;;;10.52;2.85;;;16.00;99.90;;;;;;5011092;28;20095;-69
2023/10/06 08:40:22;;;;;;;9.55;3.05;;;16.00;99.90;;;;;;5005004;28;20062;-71
2023/10/06 08:42:58;;;;;;;13.38;2.10;;;16.00;99.90;;;;;;4982995;28;20038;-71
2023/10/06 08:45:28;;;;;;;6.72;1.98;;;16.00;99.90;;;;;;5003233;28;20068;-71
2023/10/06 08:47:58;;;;;;;8.50;2.00;;;16.00;99.90;;;;;;4982691;28;20406;-72
2023/10/06 08:50:27;;;;;;;8.02;2.20;;;16.00;99.90;;;;;;4996424;28;20331;-70
2023/10/06 08:52:54;;;;;;;6.32;2.47;;;16.10;99.90;;;;;;4999699;28;20052;-70
2023/10/06 08:55:21;;;;;;;8.60;2.45;;;16.10;99.90;;;;;;4978816;28;20097;-72
2023/10/06 08:57:48;;;;;;;10.65;2.30;;;16.20;99.90;;;;;;4999284;28;20034;-70
2023/10/06 09:00:15;;;;;;;17.20;1.92;;;16.30;99.90;;;;;;4979594;28;20113;-71
2023/10/06 09:02:46;;;;;;;5.68;2.28;;;16.40;99.90;;;;;;4978582;28;20033;-71
2023/10/06 09:05:13;;;;;;;7.00;1.73;;;16.50;99.90;;;;;;4982560;28;20040;-70
2023/10/06 09:07:56;;;;;;;6.88;2.08;;;16.60;99.90;;;;;;4996276;28;20062;-71
2023/10/06 09:10:22;;;;;;;7.32;2.22;;;16.80;99.90;;;;;;4978320;28;20038;-71
2023/10/06 09:13:04;;;;;;;4.57;1.80;;;16.80;99.90;;;;;;4981783;28;20139;-72
2023/10/06 09:15:30;;;;;;;9.07;1.63;;;16.90;99.90;;;;;;4983377;28;20034;-70
2023/10/06 09:17:57;;;;;;;11.82;2.03;;;17.00;99.90;;;;;;5000565;28;20029;-71
2023/10/06 09:20:37;;;;;;;10.15;1.65;;;17.10;99.90;;;;;;4978765;28;20041;-71
2023/10/06 09:23:04;;;;;;;8.35;2.10;;;17.20;99.90;;;;;;5000355;28;20050;-70
2023/10/06 09:25:45;;;;;;;6.90;1.58;;;17.20;99.90;;;;;;4980721;28;20030;-70
2023/10/06 09:28:14;;;;;;;6.78;2.63;;;17.20;99.90;;;;;;4997398;28;20043;-71
2023/10/06 09:30:57;;;;;;;9.00;2.08;;;17.30;99.90;;;;;;4981564;28;20112;-69
2023/10/06 09:33:25;;;;;;;5.50;1.55;;;17.40;99.90;;;;;;4978220;28;20069;-70
2023/10/06 09:36:07;;;;;;;15.07;2.42;;;17.40;99.90;;;;;;4977528;28;20736;-70
2023/10/06 09:38:38;;;;;;;7.82;1.75;;;17.40;99.90;;;;;;4995694;28;20789;-70
2023/10/06 09:41:07;;;;;;;12.63;1.92;;;17.50;99.90;;;;;;4977232;28;20041;-70
2023/10/06 09:43:35;;;;;;;5.15;1.98;;;17.60;99.90;;;;;;4992110;28;20038;-70
2023/10/06 09:46:13;;;;;;;5.55;1.85;;;17.70;99.90;;;;;;4989522;28;20458;-71
2023/10/06 09:48:40;;;;;;;5.28;1.55;;;17.80;99.90;;;;;;4975782;28;20026;-72
2023/10/06 09:51:07;;;;;;;8.75;2.25;;;17.90;99.90;;;;;;4978898;28;20036;-71
2023/10/06 09:53:43;;;;;;;7.55;2.17;;;17.90;99.90;;;;;;4997819;28;20105;-70
2023/10/06 09:56:11;;;;;;;5.97;2.10;;;18.00;99.90;;;;;;4994813;28;20121;-71
2023/10/06 09:58:54;;;;;;;6.05;2.05;;;18.00;99.90;;;;;;4995732;28;20045;-72
2023/10/06 10:01:25;;;;;;;9.52;2.17;;;18.00;99.90;;;;;;4990817;28;20081;-71
2023/10/06 10:03:54;;;;;;;12.02;1.90;;;18.00;99.90;;;;;;4995069;28;20514;-71
2023/10/06 10:06:21;;;;;;;9.10;1.98;;;18.00;99.90;;;;;;5002255;28;20096;-72
2023/10/06 10:08:47;;;;;;;5.75;1.63;;;18.00;99.90;;;;;;4996974;28;20046;-70
2023/10/06 10:11:28;;;;;;;6.93;1.63;;;17.90;99.90;;;;;;4994894;28;20649;-70
2023/10/06 10:14:14;;;;;;;9.85;1.95;;;17.90;99.90;;;;;;4976860;28;20081;-71
2023/10/06 10:17:08;;;;;;;7.88;1.80;;;18.00;99.90;;;;;;4995075;28;20041;-71
2023/10/06 10:19:36;;;;;;;8.90;1.80;;;18.10;99.90;;;;;;4983390;28;20068;-72
2023/10/06 10:22:03;;;;;;;8.85;1.27;;;18.20;99.90;;;;;;4985215;28;20033;-71
2023/10/06 10:24:31;;;;;;;7.13;1.48;;;18.30;99.90;;;;;;4987741;28;20418;-71
2023/10/06 10:26:59;;;;;;;9.27;1.55;;;18.40;99.90;;;;;;4985636;28;20030;-73
2023/10/06 10:29:24;;;;;;;10.43;1.52;;;18.40;99.90;;;;;;5005690;28;20517;-71
2023/10/06 10:32:09;;;;;;;7.30;1.85;;;18.50;99.90;;;;;;4987856;28;20046;-71
2023/10/06 10:35:12;;;;;;;7.78;1.40;;;18.70;99.90;;;;;;5003013;28;20046;-73
2023/10/06 10:38:06;;;;;;;4.43;1.38;;;18.80;99.90;;;;;;4996988;28;20570;-72
2023/10/06 10:40:48;;;;;;;8.30;1.92;;;18.90;99.90;;;;;;4977772;28;20033;-70
2023/10/06 10:43:14;;;;;;;10.20;1.58;;;19.00;99.90;;;;;;4991063;28;20042;-70
2023/10/06 10:45:44;;;;;;;4.22;1.40;;;19.10;99.90;;;;;;5005875;28;20042;-72
2023/10/06 10:48:14;;;;;;;5.13;1.30;;;19.10;99.90;;;;;;4992390;28;20030;-71
2023/10/06 10:51:06;;;;;;;5.63;1.27;;;19.10;99.90;;;;;;4981174;28;20037;-72
2023/10/06 10:53:35;;;;;;;6.28;1.45;;;19.00;99.90;;;;;;4975862;28;20042;-71
2023/10/06 10:56:02;;;;;;;6.15;1.60;;;18.90;99.90;;;;;;4996838;28;20038;-72
2023/10/06 10:58:47;;;;;;;5.53;1.38;;;18.80;99.90;;;;;;4999005;28;20353;-70
2023/10/06 11:01:32;;;;;;;8.02;1.38;;;18.70;99.90;;;;;;4979417;28;20057;-71
2023/10/06 11:04:12;;;;;;;6.25;1.15;;;18.70;99.90;;;;;;4971930;28;20042;-72
2023/10/06 11:07:07;;;;;;;6.85;1.75;;;18.70;99.90;;;;;;4983057;28;20094;-73
2023/10/06 11:12:05;;;;;;;7.05;1.52;;;18.60;99.90;;;;;;4995598;28;20057;-71
2023/10/06 11:14:37;;;;;;;4.03;1.10;;;18.70;99.90;;;;;;4980795;28;20398;-71
2023/10/06 11:17:05;;;;;;;5.25;1.67;;;18.70;99.90;;;;;;5002025;28;20033;-71
2023/10/06 11:19:32;;;;;;;5.53;1.42;;;18.50;99.90;;;;;;4975873;28;20034;-72
2023/10/06 11:22:19;;;;;;;6.30;1.83;;;18.40;99.90;;;;;;4996327;28;20044;-70
2023/10/06 11:24:46;;;;;;;5.82;1.60;;;18.50;99.90;;;;;;4992932;28;20466;-73
2023/10/06 11:27:12;;;;;;;10.40;2.45;;;18.60;99.90;;;;;;4993211;28;20034;-71
2023/10/06 11:29:37;;;;;;;5.28;1.17;;;18.60;99.90;;;;;;4995944;28;20104;-71
2023/10/06 11:32:04;;;;;;;7.63;1.23;;;18.60;99.90;;;;;;4993517;28;20030;-72
2023/10/06 11:34:29;;;;;;;13.57;1.45;;;18.60;99.90;;;;;;4995043;28;20537;-71
2023/10/06 11:36:56;;;;;;;7.75;1.70;;;18.60;99.90;;;;;;4977508;28;20034;-71
2023/10/06 11:39:29;;;;;;;8.43;1.60;;;18.70;99.90;;;;;;5002482;28;20077;-70
2023/10/06 11:42:23;;;;;;;8.82;1.30;;;18.70;99.90;;;;;;4996262;28;20034;-73
2023/10/06 11:44:52;;;;;;;4.53;1.52;;;18.80;99.90;;;;;;4978763;28;20077;-71
2023/10/06 11:47:19;;;;;;;8.95;1.52;;;18.80;99.90;;;;;;4997114;28;20041;-71
2023/10/06 11:49:55;;;;;;;5.25;1.27;;;18.90;99.90;;;;;;4996318;28;20046;-71
2023/10/06 11:52:21;;;;;;;5.93;1.40;;;19.00;99.90;;;;;;4978877;28;20117;-71
2023/10/06 11:54:47;;;;;;;5.82;1.38;;;19.20;99.90;;;;;;4997321;28;20125;-71
2023/10/06 11:57:13;;;;;;;18.20;2.10;;;19.20;99.90;;;;;;5000021;28;20037;-71
2023/10/06 11:59:51;;;;;;;5.40;1.58;;;19.20;99.90;;;;;;4981125;28;20038;-70
2023/10/06 12:02:17;;;;;;;9.27;1.85;;;19.30;99.90;;;;;;4995438;28;20046;-71
2023/10/06 12:04:43;;;;;;;7.25;1.40;;;19.20;99.90;;;;;;4978813;28;20658;-70
2023/10/06 12:07:24;;;;;;;4.13;1.33;;;19.20;99.90;;;;;;4986433;28;20037;-71
2023/10/06 12:09:50;;;;;;;6.57;1.20;;;19.30;99.90;;;;;;5003235;28;20080;-70
2023/10/06 12:12:19;;;;;;;7.05;1.70;;;19.40;99.90;;;;;;4979457;28;20033;-71
2023/10/06 12:14:45;;;;;;;8.88;2.30;;;19.40;99.90;;;;;;4997909;28;20061;-71
2023/10/06 12:17:17;;;;;;;7.93;1.80;;;19.40;99.90;;;;;;4990536;28;20034;-70
2023/10/06 12:19:43;;;;;;;9.65;1.45;;;19.30;99.90;;;;;;4999045;28;20052;-70
2023/10/06 12:22:09;;;;;;;11.27;2.08;;;19.30;99.90;;;;;;4985446;28;20033;-71
2023/10/06 12:24:34;;;;;;;8.98;2.03;;;19.30;99.90;;;;;;4977237;28;20050;-71
2023/10/06 12:27:00;;;;;;;5.07;1.27;;;19.20;99.90;;;;;;4999316;28;20125;-72
2023/10/06 12:29:28;;;;;;;12.57;2.28;;;19.10;99.90;;;;;;4979357;28;20406;-71
2023/10/06 12:31:56;;;;;;;7.57;1.42;;;19.10;99.90;;;;;;4996111;28;20038;-71
2023/10/06 12:34:21;;;;;;;6.97;1.67;;;19.00;99.90;;;;;;4980039;28;20498;-71
2023/10/06 12:36:48;;;;;;;8.55;1.40;;;19.00;99.90;;;;;;4990072;28;20046;-71
2023/10/06 12:39:30;;;;;;;6.80;1.05;;;19.20;99.90;;;;;;4982439;28;20541;-70
2023/10/06 12:41:57;;;;;;;5.80;2.10;;;19.20;99.90;;;;;;4995288;28;20045;-71
2023/10/06 12:44:23;;;;;;;13.63;2.10;;;19.20;99.90;;;;;;4997465;28;20057;-70
2023/10/06 12:46:48;;;;;;;11.73;2.22;;;19.30;99.90;;;;;;4999830;28;20515;-70
2023/10/06 12:49:18;;;;;;;5.38;1.30;;;19.40;99.90;;;;;;4998586;28;20611;-70
2023/10/06 12:51:44;;;;;;;5.20;1.00;;;19.30;99.90;;;;;;4995500;28;20034;-70
2023/10/06 12:54:09;;;;;;;8.60;1.77;;;19.50;99.90;;;;;;4981624;28;20048;-72
2023/10/06 12:56:35;;;;;;;9.88;1.38;;;19.50;99.90;;;;;;4991832;28;20499;-71
2023/10/06 12:59:01;;;;;;;5.13;1.30;;;19.50;99.90;;;;;;4997104;28;20036;-70
2023/10/06 13:01:30;;;;;;;2.72;0.82;;;19.50;99.90;;;;;;4999090;28;20046;-71
2023/10/06 13:03:56;;;;;;;3.13;1.10;;;19.40;99.90;;;;;;4998418;28;20048;-71
2023/10/06 13:06:22;;;;;;;4.43;1.25;;;19.40;99.90;;;;;;4989501;28;20273;-72
2023/10/06 13:08:49;;;;;;;8.27;1.33;;;19.40;99.90;;;;;;4988627;28;20149;-71